createdAt,value
2018-06-03T00:00:46.529Z,4.80
2018-06-03T00:03:14.639Z,4.60
2018-06-03T00:05:42.736Z,4.97
2018-06-03T00:08:10.824Z,7.13
2018-06-03T00:10:38.896Z,4.63
2018-06-03T00:13:06.980Z,5.13
2018-06-03T00:15:35.028Z,4.43
2018-06-03T00:18:03.112Z,5.03
2018-06-03T00:20:43.060Z,4.37
2018-06-03T00:23:11.121Z,6.20
2018-06-03T00:25:39.187Z,7.23
2018-06-03T00:28:07.266Z,4.87
2018-06-03T00:30:35.341Z,5.27
2018-06-03T00:33:03.428Z,4.73
2018-06-03T00:35:32.984Z,5.67
2018-06-03T00:38:01.098Z,5.90
2018-06-03T00:40:29.227Z,4.90
2018-06-03T00:42:57.228Z,5.77
2018-06-03T00:45:25.313Z,5.27
2018-06-03T00:47:53.392Z,6.37
2018-06-03T00:50:21.443Z,4.97
2018-06-03T00:52:49.550Z,4.60
2018-06-03T00:55:17.586Z,5.03
2018-06-03T00:57:45.704Z,4.87
2018-06-03T01:00:13.796Z,5.00
2018-06-03T01:02:41.844Z,6.20
2018-06-03T01:05:09.915Z,5.73
2018-06-03T01:07:37.979Z,5.90
2018-06-03T01:10:06.064Z,5.53
2018-06-03T01:12:34.208Z,5.23
2018-06-03T01:15:02.269Z,5.30
2018-06-03T01:17:30.341Z,6.70
2018-06-03T01:19:58.458Z,7.37
2018-06-03T01:22:33.039Z,5.87
2018-06-03T01:25:01.107Z,6.77
2018-06-03T01:27:29.144Z,6.93
2018-06-03T01:29:57.208Z,8.70
2018-06-03T01:32:25.313Z,4.83
2018-06-03T01:34:53.380Z,5.00
2018-06-03T01:39:55.947Z,5.93
2018-06-03T01:42:24.004Z,7.23
2018-06-03T01:44:52.088Z,6.00
2018-06-03T01:47:20.142Z,5.90
2018-06-03T01:49:48.200Z,5.10
2018-06-03T01:52:16.263Z,8.90
2018-06-03T01:54:44.327Z,5.20
2018-06-03T01:57:12.379Z,11.07
2018-06-03T01:59:40.492Z,5.13
2018-06-03T02:02:08.640Z,7.23
2018-06-03T02:04:36.721Z,6.17
2018-06-03T02:07:04.792Z,5.33
2018-06-03T02:09:32.857Z,5.67
2018-06-03T02:12:00.925Z,5.03
2018-06-03T02:14:28.976Z,6.30
2018-06-03T02:16:57.064Z,5.57
2018-06-03T02:19:25.127Z,5.63
2018-06-03T02:21:53.187Z,5.13
2018-06-03T02:24:21.273Z,5.40
2018-06-03T02:26:49.330Z,5.67
2018-06-03T02:29:17.409Z,7.23
2018-06-03T02:31:45.460Z,6.00
2018-06-03T02:34:13.526Z,6.07
2018-06-03T02:36:41.624Z,9.60
2018-06-03T02:39:09.691Z,8.10
2018-06-03T02:41:37.765Z,5.57
2018-06-03T02:44:05.844Z,5.00
2018-06-03T02:46:33.923Z,6.77
2018-06-03T02:49:01.986Z,5.93
2018-06-03T02:51:30.062Z,5.87
2018-06-03T02:53:58.131Z,6.00
2018-06-03T02:56:26.192Z,6.70
2018-06-03T02:58:54.280Z,5.30
2018-06-03T03:01:22.417Z,8.40
2018-06-03T03:03:50.464Z,7.23
2018-06-03T03:06:18.540Z,5.40
2018-06-03T03:08:46.601Z,6.63
2018-06-03T03:11:14.676Z,5.63
2018-06-03T03:13:42.767Z,6.10
2018-06-03T03:16:10.837Z,9.43
2018-06-03T03:18:38.902Z,6.30
2018-06-03T03:21:07.000Z,7.27
2018-06-03T03:23:35.083Z,5.90
2018-06-03T03:26:03.167Z,6.70
2018-06-03T03:28:31.255Z,7.13
2018-06-03T03:30:59.337Z,6.63
2018-06-03T03:33:27.382Z,6.23
2018-06-03T03:35:55.462Z,6.07
2018-06-03T03:38:23.510Z,7.27
2018-06-03T03:40:51.589Z,5.50
2018-06-03T03:43:19.640Z,5.70
2018-06-03T03:45:47.721Z,5.90
2018-06-03T03:48:15.780Z,5.73
2018-06-03T03:50:43.847Z,8.30
2018-06-03T03:53:11.924Z,9.80
2018-06-03T03:55:39.991Z,5.67
2018-06-03T03:58:08.073Z,4.93
2018-06-03T04:00:36.132Z,5.80
2018-06-03T04:03:04.196Z,5.23
2018-06-03T04:05:32.267Z,5.50
2018-06-03T04:08:00.375Z,7.57
2018-06-03T04:10:28.432Z,5.00
2018-06-03T04:12:56.509Z,6.83
2018-06-03T04:15:24.557Z,5.80
2018-06-03T04:17:52.655Z,5.77
2018-06-03T04:20:20.748Z,7.20
2018-06-03T04:22:48.873Z,5.00
2018-06-03T04:25:17.159Z,4.37
2018-06-03T04:27:45.318Z,5.83
2018-06-03T04:30:13.413Z,5.83
2018-06-03T04:32:41.495Z,6.57
2018-06-03T04:35:09.560Z,6.03
2018-06-03T04:37:37.619Z,5.40
2018-06-03T04:40:05.703Z,5.53
2018-06-03T04:42:33.777Z,4.50
2018-06-03T04:45:01.840Z,5.87
2018-06-03T04:47:29.903Z,6.20
2018-06-03T04:49:57.941Z,5.93
2018-06-03T04:52:26.047Z,7.80
2018-06-03T04:54:54.101Z,7.10
2018-06-03T04:57:22.171Z,5.20
2018-06-03T04:59:50.215Z,5.10
2018-06-03T05:02:18.287Z,7.73
2018-06-03T05:04:46.354Z,6.13
2018-06-03T05:07:14.420Z,5.20
2018-06-03T05:09:42.491Z,6.43
2018-06-03T05:12:10.566Z,8.07
2018-06-03T05:14:38.603Z,5.20
2018-06-03T05:17:06.668Z,6.90
2018-06-03T05:19:34.709Z,8.50
2018-06-03T05:22:02.768Z,9.70
2018-06-03T05:24:30.890Z,7.80
2018-06-03T05:26:58.950Z,7.53
2018-06-03T05:29:27.031Z,9.10
2018-06-03T05:31:55.124Z,7.60
2018-06-03T05:34:23.180Z,6.77
2018-06-03T05:36:51.336Z,7.30
2018-06-03T05:39:19.396Z,9.43
2018-06-03T05:41:47.453Z,7.80
2018-06-03T05:44:15.563Z,8.00
2018-06-03T05:46:43.632Z,7.23
2018-06-03T05:49:11.773Z,6.77
2018-06-03T05:51:39.873Z,7.90
2018-06-03T05:54:07.963Z,6.23
2018-06-03T05:56:36.123Z,5.60
2018-06-03T05:59:04.240Z,5.80
2018-06-03T06:01:32.279Z,4.13
2018-06-03T06:04:00.343Z,5.23
2018-06-03T06:06:28.414Z,5.63
2018-06-03T06:08:56.522Z,4.70
2018-06-03T06:11:24.576Z,4.87
2018-06-03T06:13:52.669Z,3.77
2018-06-03T06:16:20.722Z,4.70
2018-06-03T06:18:48.783Z,4.03
2018-06-03T06:21:16.869Z,4.60
2018-06-03T06:23:44.982Z,4.80
2018-06-03T06:26:13.060Z,4.13
2018-06-03T06:28:41.157Z,5.10
2018-06-03T06:31:09.225Z,3.63
2018-06-03T06:33:37.334Z,3.57
2018-06-03T06:36:05.453Z,3.27
2018-06-03T06:38:33.699Z,7.00
2018-06-03T06:41:01.799Z,4.93
2018-06-03T06:43:29.867Z,3.50
2018-06-03T06:45:57.944Z,4.00
2018-06-03T06:48:26.020Z,3.30
2018-06-03T06:50:54.099Z,3.67
2018-06-03T06:53:22.164Z,3.10
2018-06-03T06:55:50.243Z,3.60
2018-06-03T06:58:18.324Z,3.27
2018-06-03T07:00:46.403Z,3.47
2018-06-03T07:03:14.473Z,2.70
2018-06-03T07:05:42.544Z,3.53
2018-06-03T07:08:10.616Z,3.30
2018-06-03T07:10:38.667Z,2.90
2018-06-03T07:13:06.794Z,3.90
2018-06-03T07:15:34.808Z,3.03
2018-06-03T07:18:02.881Z,3.87
2018-06-03T07:20:31.181Z,3.00
2018-06-03T07:22:59.263Z,3.10
2018-06-03T07:25:27.313Z,4.30
2018-06-03T07:27:55.385Z,4.20
2018-06-03T07:30:23.474Z,2.97
2018-06-03T07:32:51.576Z,2.30
2018-06-03T07:35:19.696Z,2.37
2018-06-03T07:37:47.779Z,5.57
2018-06-03T07:40:15.874Z,4.00
2018-06-03T07:42:43.936Z,3.10
2018-06-03T07:45:12.032Z,3.10
2018-06-03T07:47:40.112Z,3.60
2018-06-03T07:50:08.213Z,2.77
2018-06-03T07:52:36.321Z,5.60
2018-06-03T07:55:04.406Z,3.10
2018-06-03T07:57:32.474Z,2.80
2018-06-03T08:00:01.465Z,5.83
2018-06-03T08:02:29.539Z,4.80
2018-06-03T08:04:57.613Z,2.70
2018-06-03T08:07:25.687Z,3.20
2018-06-03T08:09:53.832Z,2.53
2018-06-03T08:12:21.973Z,3.17
2018-06-03T08:14:50.028Z,4.00
2018-06-03T08:17:18.078Z,3.43
2018-06-03T08:19:46.116Z,3.50
2018-06-03T08:22:14.192Z,3.80
2018-06-03T08:24:42.258Z,3.30
2018-06-03T08:27:10.328Z,6.00
2018-06-03T08:29:38.397Z,3.10
2018-06-03T08:32:06.498Z,3.20
2018-06-03T08:34:34.564Z,2.40
2018-06-03T08:37:02.621Z,2.73
2018-06-03T08:39:30.713Z,4.07
2018-06-03T08:41:58.797Z,4.50
2018-06-03T08:44:26.898Z,3.10
2018-06-03T08:46:54.955Z,2.83
2018-06-03T08:49:23.029Z,2.30
2018-06-03T08:51:51.094Z,2.73
2018-06-03T08:54:19.180Z,1.70
2018-06-03T08:56:47.271Z,2.27
2018-06-03T08:59:15.344Z,2.53
2018-06-03T09:01:43.413Z,2.57
2018-06-03T09:04:11.476Z,2.80
2018-06-03T09:06:39.515Z,2.40
2018-06-03T09:09:07.657Z,2.43
2018-06-03T09:11:35.732Z,2.20
2018-06-03T09:14:03.807Z,3.03
2018-06-03T09:16:31.883Z,3.33
2018-06-03T09:18:59.973Z,2.23
2018-06-03T09:21:28.163Z,2.83
2018-06-03T09:23:56.257Z,2.30
2018-06-03T09:26:24.319Z,2.90
2018-06-03T09:28:52.386Z,4.30
2018-06-03T09:31:20.487Z,2.97
2018-06-03T09:33:48.604Z,2.63
2018-06-03T09:36:16.631Z,2.33
2018-06-03T09:38:44.699Z,2.80
2018-06-03T09:41:12.860Z,2.43
2018-06-03T09:43:40.947Z,2.47
2018-06-03T09:46:09.003Z,2.90
2018-06-03T09:48:37.076Z,2.90
2018-06-03T09:51:05.151Z,2.57
2018-06-03T09:53:33.221Z,4.40
2018-06-03T09:56:01.313Z,2.60
2018-06-03T09:58:29.417Z,2.40
2018-06-03T10:00:57.500Z,2.10
2018-06-03T10:03:25.538Z,2.10
2018-06-03T10:05:53.703Z,1.70
2018-06-03T10:08:21.787Z,1.83
2018-06-03T10:10:49.858Z,3.80
2018-06-03T10:13:17.939Z,2.00
2018-06-03T10:15:45.989Z,2.13
2018-06-03T10:18:14.036Z,1.63
2018-06-03T10:20:42.140Z,2.57
2018-06-03T10:23:10.201Z,2.50
2018-06-03T10:25:38.267Z,2.17
2018-06-03T10:28:06.308Z,1.60
2018-06-03T10:30:34.440Z,2.00
2018-06-03T10:33:02.500Z,1.87
2018-06-03T10:35:30.575Z,2.53
2018-06-03T10:37:58.643Z,3.20
2018-06-03T10:40:26.725Z,2.30
2018-06-03T10:42:54.820Z,5.13
2018-06-03T10:45:22.903Z,1.83
2018-06-03T10:47:50.974Z,3.53
2018-06-03T10:50:19.032Z,2.80
2018-06-03T10:52:47.152Z,3.93
2018-06-03T10:55:15.254Z,1.93
2018-06-03T10:57:43.307Z,2.67
2018-06-03T11:00:11.366Z,1.57
2018-06-03T11:02:39.431Z,2.30
2018-06-03T11:05:07.517Z,2.10
2018-06-03T11:07:35.592Z,1.63
2018-06-03T11:10:03.963Z,1.73
2018-06-03T11:12:32.011Z,2.10
2018-06-03T11:15:00.143Z,3.30
2018-06-03T11:17:28.265Z,2.57
2018-06-03T11:19:56.336Z,4.13
2018-06-03T11:22:24.408Z,3.87
2018-06-03T11:24:52.510Z,2.17
2018-06-03T11:27:20.889Z,3.57
2018-06-03T11:29:49.136Z,1.43
2018-06-03T11:32:17.187Z,1.80
2018-06-03T11:34:45.255Z,2.23
2018-06-03T11:37:13.338Z,2.00
2018-06-03T11:39:41.412Z,1.87
2018-06-03T11:42:09.511Z,2.37
2018-06-03T11:44:37.716Z,2.00
2018-06-03T11:47:05.810Z,2.73
2018-06-03T11:49:33.890Z,2.20
2018-06-03T11:52:01.949Z,2.80
2018-06-03T11:54:30.017Z,2.50
2018-06-03T11:57:02.504Z,2.97
2018-06-03T11:59:47.407Z,2.40
2018-06-03T12:02:17.793Z,2.97
2018-06-03T12:04:45.906Z,2.90
2018-06-03T12:07:13.964Z,4.13
2018-06-03T12:09:42.119Z,1.80
2018-06-03T12:12:10.561Z,4.37
2018-06-03T12:14:38.683Z,3.13
2018-06-03T12:17:06.751Z,1.90
2018-06-03T12:19:35.005Z,2.40
2018-06-03T12:22:03.091Z,2.00
2018-06-03T12:24:31.156Z,5.03
2018-06-03T12:26:59.251Z,2.17
2018-06-03T12:29:27.320Z,2.20
2018-06-03T12:31:55.384Z,1.80
2018-06-03T12:34:23.479Z,2.80
2018-06-03T12:36:51.597Z,2.10
2018-06-03T12:39:19.761Z,2.37
2018-06-03T12:41:47.881Z,2.10
2018-06-03T12:44:15.899Z,2.00
2018-06-03T12:46:44.071Z,2.07
2018-06-03T12:49:12.128Z,2.20
2018-06-03T12:51:40.245Z,1.90
2018-06-03T12:54:08.336Z,2.80
2018-06-03T12:56:36.484Z,1.60
2018-06-03T12:59:04.563Z,1.90
2018-06-03T13:01:32.686Z,1.80
2018-06-03T13:04:00.805Z,1.70
2018-06-03T13:06:28.957Z,2.13
2018-06-03T13:08:58.024Z,2.90
2018-06-03T13:11:26.103Z,2.50
2018-06-03T13:13:54.183Z,3.07
2018-06-03T13:16:22.259Z,2.27
2018-06-03T13:18:50.330Z,5.07
2018-06-03T13:21:18.418Z,1.80
2018-06-03T13:23:46.764Z,1.80
2018-06-03T13:26:14.839Z,2.50
2018-06-03T13:28:42.956Z,2.33
2018-06-03T13:31:12.888Z,2.23
2018-06-03T13:33:41.272Z,1.90
2018-06-03T13:36:10.538Z,2.60
2018-06-03T13:38:41.036Z,2.27
2018-06-03T13:41:09.370Z,2.70
2018-06-03T13:43:38.252Z,2.07
2018-06-03T13:46:11.071Z,3.90
2018-06-03T13:48:41.677Z,2.33
2018-06-03T13:51:11.973Z,3.40
2018-06-03T13:53:42.975Z,2.00
2018-06-03T13:56:14.084Z,2.30
2018-06-03T13:58:45.798Z,2.07
2018-06-03T14:01:18.267Z,3.23
2018-06-03T14:03:47.046Z,2.10
2018-06-03T14:06:16.663Z,2.00
2018-06-03T14:08:45.478Z,2.70
2018-06-03T14:11:16.075Z,1.93
2018-06-03T14:13:45.446Z,3.57
2018-06-03T14:16:14.339Z,2.60
2018-06-03T14:18:43.008Z,2.13
2018-06-03T14:21:13.590Z,2.93
2018-06-03T14:23:43.408Z,4.20
2018-06-03T14:26:12.029Z,2.00
2018-06-03T14:28:42.037Z,1.93
2018-06-03T14:31:11.295Z,1.87
2018-06-03T14:33:41.626Z,3.90
2018-06-03T14:36:10.682Z,2.50
2018-06-03T14:38:39.973Z,1.93
2018-06-03T14:41:11.259Z,2.50
2018-06-03T14:43:40.057Z,8.00
2018-06-03T14:46:10.784Z,2.33
2018-06-03T14:48:40.111Z,2.63
2018-06-03T14:51:09.455Z,1.80
2018-06-03T14:53:37.520Z,1.53
2018-06-03T14:56:05.575Z,3.83
2018-06-03T14:58:33.592Z,3.60
2018-06-03T15:01:01.669Z,1.90
2018-06-03T15:03:29.757Z,2.53
2018-06-03T15:05:57.863Z,2.17
2018-06-03T15:08:26.065Z,2.10
2018-06-03T15:10:54.135Z,2.57
2018-06-03T15:13:22.220Z,2.60
2018-06-03T15:15:50.317Z,1.73
2018-06-03T15:18:18.388Z,1.87
2018-06-03T15:20:46.468Z,1.57
2018-06-03T15:23:15.375Z,2.00
2018-06-03T15:25:43.551Z,2.17
2018-06-03T15:28:11.653Z,2.30
2018-06-03T15:30:39.725Z,3.40
2018-06-03T15:33:07.861Z,2.50
2018-06-03T15:35:35.908Z,3.23
2018-06-03T15:38:03.976Z,1.80
2018-06-03T15:40:32.267Z,2.27
2018-06-03T15:43:00.419Z,2.20
2018-06-03T15:45:28.506Z,3.40
2018-06-03T15:47:56.615Z,1.80
2018-06-03T15:50:24.703Z,1.20
2018-06-03T15:52:52.768Z,1.83
2018-06-03T15:55:20.841Z,1.80
2018-06-03T15:57:48.912Z,2.20
2018-06-03T16:00:17.645Z,2.83
2018-06-03T16:02:45.745Z,1.40
2018-06-03T16:05:14.379Z,2.97
2018-06-03T16:07:42.452Z,5.80
2018-06-03T16:10:10.612Z,5.73
2018-06-03T16:12:38.701Z,4.23
2018-06-03T16:15:06.760Z,5.27
2018-06-03T16:17:34.872Z,2.20
2018-06-03T16:20:03.031Z,1.47
2018-06-03T16:22:31.092Z,2.20
2018-06-03T16:24:59.207Z,2.53
2018-06-03T16:27:27.301Z,1.43
2018-06-03T16:29:55.376Z,1.60
2018-06-03T16:32:23.460Z,2.73
2018-06-03T16:34:51.519Z,2.13
2018-06-03T16:37:20.215Z,2.07
2018-06-03T16:39:48.284Z,1.73
2018-06-03T16:42:16.333Z,2.00
2018-06-03T16:44:44.441Z,3.67
2018-06-03T16:47:12.531Z,2.10
2018-06-03T16:49:40.591Z,1.70
2018-06-03T16:52:08.667Z,1.93
2018-06-03T16:54:36.794Z,1.70
2018-06-03T16:57:04.914Z,1.77
2018-06-03T16:59:33.107Z,2.77
2018-06-03T17:02:01.183Z,2.10
2018-06-03T17:04:35.864Z,1.67
2018-06-03T17:07:03.961Z,2.50
2018-06-03T17:09:32.049Z,1.83
2018-06-03T17:12:00.183Z,2.00
2018-06-03T17:14:28.248Z,2.07
2018-06-03T17:16:56.370Z,1.73
2018-06-03T17:19:24.435Z,1.50
2018-06-03T17:21:52.504Z,3.03
2018-06-03T17:24:20.572Z,2.17
2018-06-03T17:26:48.678Z,1.73
2018-06-03T17:29:17.239Z,1.90
2018-06-03T17:31:45.326Z,2.27
2018-06-03T17:34:13.386Z,1.80
2018-06-03T17:36:41.431Z,2.00
2018-06-03T17:39:09.520Z,3.33
2018-06-03T17:41:37.589Z,2.10
2018-06-03T17:44:05.684Z,2.63
2018-06-03T17:46:33.754Z,2.00
2018-06-03T17:49:01.846Z,1.67
2018-06-03T17:51:29.901Z,1.87
2018-06-03T17:53:57.946Z,2.00
2018-06-03T17:56:26.011Z,1.70
2018-06-03T17:58:54.164Z,2.13
2018-06-03T18:01:22.256Z,1.73
2018-06-03T18:03:50.349Z,5.43
2018-06-03T18:06:18.400Z,1.60
2018-06-03T18:08:46.470Z,1.80
2018-06-03T18:11:14.571Z,1.33
2018-06-03T18:13:42.651Z,1.57
2018-06-03T18:16:10.719Z,1.20
2018-06-03T18:18:38.792Z,4.70
2018-06-03T18:21:06.850Z,1.73
2018-06-03T18:23:34.979Z,3.30
2018-06-03T18:26:03.070Z,3.00
2018-06-03T18:28:31.160Z,1.70
2018-06-03T18:30:59.247Z,1.40
2018-06-03T18:33:27.357Z,2.30
2018-06-03T18:35:55.467Z,1.60
2018-06-03T18:38:24.485Z,1.83
2018-06-03T18:40:52.588Z,1.40
2018-06-03T18:43:20.671Z,1.87
2018-06-03T18:45:48.832Z,1.50
2018-06-03T18:48:16.908Z,1.80
2018-06-03T18:50:45.036Z,1.93
2018-06-03T18:53:13.145Z,4.40
2018-06-03T18:55:41.202Z,3.97
2018-06-03T18:58:09.277Z,1.63
2018-06-03T19:00:37.345Z,2.50
2018-06-03T19:03:05.449Z,1.93
2018-06-03T19:05:33.568Z,2.73
2018-06-03T19:08:01.763Z,3.00
2018-06-03T19:10:30.067Z,2.93
2018-06-03T19:12:58.195Z,2.20
2018-06-03T19:15:26.289Z,2.17
2018-06-03T19:17:54.419Z,2.47
2018-06-03T19:20:22.496Z,4.33
2018-06-03T19:22:50.597Z,2.60
2018-06-03T19:25:18.692Z,4.30
2018-06-03T19:27:46.897Z,2.30
2018-06-03T19:30:14.991Z,2.23
2018-06-03T19:32:43.116Z,2.10
2018-06-03T19:35:11.165Z,2.23
2018-06-03T19:37:39.340Z,2.53
2018-06-03T19:40:07.531Z,2.43
2018-06-03T19:42:35.735Z,2.30
2018-06-03T19:45:03.803Z,2.93
2018-06-03T19:47:31.860Z,2.63
2018-06-03T19:49:59.958Z,3.90
2018-06-03T19:52:28.094Z,2.10
2018-06-03T19:54:56.220Z,9.60
2018-06-03T19:57:24.305Z,2.43
2018-06-03T19:59:53.445Z,2.20
2018-06-03T20:02:21.961Z,2.10
2018-06-03T20:04:50.700Z,2.30
2018-06-03T20:07:18.889Z,2.90
2018-06-03T20:09:47.074Z,2.87
2018-06-03T20:12:15.365Z,2.10
2018-06-03T20:14:43.634Z,2.80
2018-06-03T20:17:11.906Z,2.60
2018-06-03T20:19:40.215Z,3.30
2018-06-03T20:22:08.622Z,4.13
2018-06-03T20:24:39.109Z,3.00
2018-06-03T20:27:07.324Z,4.17
2018-06-03T20:29:35.821Z,4.60
2018-06-03T20:32:04.096Z,4.00
2018-06-03T20:34:36.013Z,3.83
2018-06-03T20:37:04.264Z,5.27
2018-06-03T20:39:32.542Z,4.70
2018-06-03T20:42:01.868Z,5.63
2018-06-03T20:44:30.153Z,5.67
2018-06-03T20:46:58.290Z,5.10
2018-06-03T20:49:28.652Z,3.77
2018-06-03T20:51:56.869Z,5.83
2018-06-03T20:54:25.053Z,6.27
2018-06-03T20:56:53.236Z,4.70
2018-06-03T20:59:21.719Z,5.00
2018-06-03T21:01:49.920Z,5.53
2018-06-03T21:04:19.790Z,6.23
2018-06-03T21:06:48.298Z,5.33
2018-06-03T21:09:17.861Z,5.87
2018-06-03T21:11:46.408Z,8.33
2018-06-03T21:14:14.580Z,8.03
2018-06-03T21:16:42.831Z,6.57
2018-06-03T21:19:11.698Z,7.77
2018-06-03T21:21:39.906Z,8.43
2018-06-03T21:24:08.157Z,8.00
2018-06-03T21:26:36.313Z,8.20
2018-06-03T21:29:04.469Z,7.90
2018-06-03T21:31:32.772Z,8.70
2018-06-03T21:34:00.935Z,8.53
2018-06-03T21:36:29.314Z,9.10
2018-06-03T21:38:57.473Z,10.77
2018-06-03T21:41:25.612Z,8.03
2018-06-03T21:43:53.841Z,9.30
2018-06-03T21:46:22.117Z,8.80
2018-06-03T21:48:50.282Z,8.13
2018-06-03T21:51:18.576Z,8.37
2018-06-03T21:53:46.786Z,8.50
2018-06-03T21:56:15.029Z,10.60
2018-06-03T21:58:43.232Z,8.00
2018-06-03T22:01:11.431Z,8.73
2018-06-03T22:03:39.985Z,8.83
2018-06-03T22:06:08.142Z,8.90
2018-06-03T22:08:36.321Z,8.70
2018-06-03T22:11:04.563Z,9.70
2018-06-03T22:13:32.727Z,9.03
2018-06-03T22:16:03.642Z,8.63
2018-06-03T22:18:31.865Z,9.73
2018-06-03T22:21:00.258Z,7.97
2018-06-03T22:23:28.593Z,9.10
2018-06-03T22:25:56.664Z,8.33
2018-06-03T22:28:24.746Z,10.17
2018-06-03T22:30:52.850Z,9.03
2018-06-03T22:33:20.936Z,9.37
2018-06-03T22:35:49.006Z,10.00
2018-06-03T22:38:17.071Z,9.43
2018-06-03T22:40:45.155Z,8.10
2018-06-03T22:43:13.198Z,9.40
2018-06-03T22:45:41.292Z,9.17
2018-06-03T22:48:09.364Z,7.93
2018-06-03T22:50:37.440Z,8.63
2018-06-03T22:53:05.547Z,7.90
2018-06-03T22:55:33.676Z,10.63
2018-06-03T22:58:01.821Z,8.53
2018-06-03T23:00:30.704Z,8.50
2018-06-03T23:03:04.066Z,7.50
2018-06-03T23:05:32.147Z,8.80
2018-06-03T23:08:00.293Z,8.47
2018-06-03T23:10:28.369Z,10.13
2018-06-03T23:12:56.477Z,8.00
2018-06-03T23:15:24.663Z,8.50
2018-06-03T23:17:52.712Z,8.13
2018-06-03T23:20:20.767Z,8.63
2018-06-03T23:22:48.852Z,8.83
2018-06-03T23:25:16.927Z,10.50
2018-06-03T23:27:45.035Z,11.70
2018-06-03T23:30:13.126Z,9.47
2018-06-03T23:32:41.206Z,10.37
2018-06-03T23:35:09.329Z,8.63
2018-06-03T23:37:37.385Z,10.30
2018-06-03T23:40:05.543Z,10.87
2018-06-03T23:42:33.656Z,8.43
2018-06-03T23:45:01.791Z,11.13
2018-06-03T23:47:29.838Z,8.83
2018-06-03T23:49:58.005Z,10.00
2018-06-03T23:52:26.152Z,10.27
2018-06-03T23:54:54.250Z,9.50
2018-06-03T23:57:22.375Z,9.57
2018-06-03T23:59:50.476Z,11.10
